sensor_id;sensor_type;location;lat;lon;timestamp;P1;durP1;ratioP1;P2;durP2;ratioP2
15936;SDS011;9163;48.818;8.976;2022-10-16T00:01:04;3.63;;;1.30;;
15936;SDS011;9163;48.818;8.976;2022-10-16T00:03:32;2.93;;;1.60;;
15936;SDS011;9163;48.818;8.976;2022-10-16T00:06:00;2.43;;;1.30;;
15936;SDS011;9163;48.818;8.976;2022-10-16T00:08:28;1.83;;;1.30;;
15936;SDS011;9163;48.818;8.976;2022-10-16T00:11:00;3.80;;;1.50;;
15936;SDS011;9163;48.818;8.976;2022-10-16T00:13:28;1.50;;;1.40;;
15936;SDS011;9163;48.818;8.976;2022-10-16T00:15:56;2.33;;;1.50;;
15936;SDS011;9163;48.818;8.976;2022-10-16T00:18:25;1.80;;;1.40;;
15936;SDS011;9163;48.818;8.976;2022-10-16T00:20:52;3.20;;;1.50;;
15936;SDS011;9163;48.818;8.976;2022-10-16T00:23:20;2.67;;;1.50;;
15936;SDS011;9163;48.818;8.976;2022-10-16T00:25:54;1.63;;;1.20;;
15936;SDS011;9163;48.818;8.976;2022-10-16T00:28:23;2.83;;;1.27;;
15936;SDS011;9163;48.818;8.976;2022-10-16T00:30:51;2.50;;;1.33;;
15936;SDS011;9163;48.818;8.976;2022-10-16T00:33:19;3.27;;;1.30;;
15936;SDS011;9163;48.818;8.976;2022-10-16T00:35:46;2.70;;;1.40;;
15936;SDS011;9163;48.818;8.976;2022-10-16T00:38:14;4.47;;;1.87;;
15936;SDS011;9163;48.818;8.976;2022-10-16T00:40:41;1.93;;;1.50;;
15936;SDS011;9163;48.818;8.976;2022-10-16T00:43:11;2.17;;;1.57;;
15936;SDS011;9163;48.818;8.976;2022-10-16T00:45:42;3.37;;;1.50;;
15936;SDS011;9163;48.818;8.976;2022-10-16T00:48:10;4.83;;;1.70;;
15936;SDS011;9163;48.818;8.976;2022-10-16T00:50:40;2.27;;;1.70;;
15936;SDS011;9163;48.818;8.976;2022-10-16T00:53:09;2.20;;;1.73;;
15936;SDS011;9163;48.818;8.976;2022-10-16T00:55:38;4.60;;;1.80;;
15936;SDS011;9163;48.818;8.976;2022-10-16T00:58:05;3.23;;;1.50;;
15936;SDS011;9163;48.818;8.976;2022-10-16T01:00:33;4.13;;;1.60;;
15936;SDS011;9163;48.818;8.976;2022-10-16T01:03:02;3.50;;;1.90;;
15936;SDS011;9163;48.818;8.976;2022-10-16T01:05:31;2.20;;;1.50;;
15936;SDS011;9163;48.818;8.976;2022-10-16T01:08:08;2.07;;;1.37;;
15936;SDS011;9163;48.818;8.976;2022-10-16T01:10:40;1.90;;;1.70;;
15936;SDS011;9163;48.818;8.976;2022-10-16T01:13:14;1.90;;;1.70;;
15936;SDS011;9163;48.818;8.976;2022-10-16T01:15:45;2.43;;;1.93;;
15936;SDS011;9163;48.818;8.976;2022-10-16T01:18:18;2.57;;;1.87;;
15936;SDS011;9163;48.818;8.976;2022-10-16T01:20:50;2.27;;;1.67;;
15936;SDS011;9163;48.818;8.976;2022-10-16T01:23:23;4.27;;;2.00;;
15936;SDS011;9163;48.818;8.976;2022-10-16T01:29:03;3.00;;;1.83;;
15936;SDS011;9163;48.818;8.976;2022-10-16T01:31:36;4.40;;;2.00;;
15936;SDS011;9163;48.818;8.976;2022-10-16T01:34:08;3.40;;;1.83;;
15936;SDS011;9163;48.818;8.976;2022-10-16T01:36:41;2.50;;;1.70;;
15936;SDS011;9163;48.818;8.976;2022-10-16T01:39:12;2.00;;;1.67;;
15936;SDS011;9163;48.818;8.976;2022-10-16T01:41:41;2.30;;;1.70;;
15936;SDS011;9163;48.818;8.976;2022-10-16T01:44:15;3.87;;;1.80;;
15936;SDS011;9163;48.818;8.976;2022-10-16T01:46:46;3.37;;;1.70;;
15936;SDS011;9163;48.818;8.976;2022-10-16T01:49:16;1.60;;;1.40;;
15936;SDS011;9163;48.818;8.976;2022-10-16T01:51:46;4.90;;;1.83;;
15936;SDS011;9163;48.818;8.976;2022-10-16T01:54:17;3.10;;;1.77;;
15936;SDS011;9163;48.818;8.976;2022-10-16T01:56:46;1.77;;;1.50;;
15936;SDS011;9163;48.818;8.976;2022-10-16T01:59:16;3.47;;;2.03;;
15936;SDS011;9163;48.818;8.976;2022-10-16T02:01:48;1.87;;;1.63;;
15936;SDS011;9163;48.818;8.976;2022-10-16T02:04:29;2.40;;;1.60;;
15936;SDS011;9163;48.818;8.976;2022-10-16T02:06:59;3.27;;;1.73;;
15936;SDS011;9163;48.818;8.976;2022-10-16T02:09:26;3.73;;;1.50;;
15936;SDS011;9163;48.818;8.976;2022-10-16T02:11:54;2.83;;;1.97;;
15936;SDS011;9163;48.818;8.976;2022-10-16T02:14:24;3.17;;;1.47;;
15936;SDS011;9163;48.818;8.976;2022-10-16T02:16:52;4.60;;;1.60;;
15936;SDS011;9163;48.818;8.976;2022-10-16T02:19:19;3.87;;;1.60;;
15936;SDS011;9163;48.818;8.976;2022-10-16T02:21:49;2.47;;;1.43;;
15936;SDS011;9163;48.818;8.976;2022-10-16T02:24:22;3.47;;;1.53;;
15936;SDS011;9163;48.818;8.976;2022-10-16T02:26:57;2.20;;;1.47;;
15936;SDS011;9163;48.818;8.976;2022-10-16T02:29:31;2.30;;;1.50;;
15936;SDS011;9163;48.818;8.976;2022-10-16T02:32:03;3.53;;;1.27;;
15936;SDS011;9163;48.818;8.976;2022-10-16T02:34:32;4.20;;;1.37;;
15936;SDS011;9163;48.818;8.976;2022-10-16T02:37:01;5.53;;;1.40;;
15936;SDS011;9163;48.818;8.976;2022-10-16T02:39:30;1.30;;;1.13;;
15936;SDS011;9163;48.818;8.976;2022-10-16T02:41:58;2.73;;;1.40;;
15936;SDS011;9163;48.818;8.976;2022-10-16T02:44:25;5.67;;;1.20;;
15936;SDS011;9163;48.818;8.976;2022-10-16T02:46:53;2.73;;;1.67;;
15936;SDS011;9163;48.818;8.976;2022-10-16T02:49:21;3.03;;;1.33;;
15936;SDS011;9163;48.818;8.976;2022-10-16T02:51:48;1.60;;;1.40;;
15936;SDS011;9163;48.818;8.976;2022-10-16T02:54:15;3.50;;;1.50;;
15936;SDS011;9163;48.818;8.976;2022-10-16T02:56:42;4.53;;;1.50;;
15936;SDS011;9163;48.818;8.976;2022-10-16T02:59:09;1.87;;;1.40;;
15936;SDS011;9163;48.818;8.976;2022-10-16T03:01:36;1.50;;;1.20;;
15936;SDS011;9163;48.818;8.976;2022-10-16T03:04:05;3.70;;;1.33;;
15936;SDS011;9163;48.818;8.976;2022-10-16T03:06:32;2.83;;;1.40;;
15936;SDS011;9163;48.818;8.976;2022-10-16T03:08:59;2.10;;;1.40;;
15936;SDS011;9163;48.818;8.976;2022-10-16T03:11:26;2.70;;;1.30;;
15936;SDS011;9163;48.818;8.976;2022-10-16T03:13:54;2.63;;;1.50;;
15936;SDS011;9163;48.818;8.976;2022-10-16T03:16:21;2.50;;;1.27;;
15936;SDS011;9163;48.818;8.976;2022-10-16T03:18:48;2.50;;;1.40;;
15936;SDS011;9163;48.818;8.976;2022-10-16T03:21:17;2.00;;;1.40;;
15936;SDS011;9163;48.818;8.976;2022-10-16T03:23:44;3.37;;;1.50;;
15936;SDS011;9163;48.818;8.976;2022-10-16T03:26:12;2.37;;;1.40;;
15936;SDS011;9163;48.818;8.976;2022-10-16T03:28:39;2.80;;;1.47;;
15936;SDS011;9163;48.818;8.976;2022-10-16T03:31:06;2.03;;;1.30;;
15936;SDS011;9163;48.818;8.976;2022-10-16T03:33:33;5.03;;;1.40;;
15936;SDS011;9163;48.818;8.976;2022-10-16T03:36:00;1.70;;;1.17;;
15936;SDS011;9163;48.818;8.976;2022-10-16T03:38:29;2.40;;;1.60;;
15936;SDS011;9163;48.818;8.976;2022-10-16T03:40:56;3.40;;;1.30;;
15936;SDS011;9163;48.818;8.976;2022-10-16T03:43:23;1.83;;;1.40;;
15936;SDS011;9163;48.818;8.976;2022-10-16T03:45:50;2.60;;;1.30;;
15936;SDS011;9163;48.818;8.976;2022-10-16T03:48:18;1.43;;;1.33;;
15936;SDS011;9163;48.818;8.976;2022-10-16T03:50:45;2.00;;;1.47;;
15936;SDS011;9163;48.818;8.976;2022-10-16T03:53:13;2.17;;;1.57;;
15936;SDS011;9163;48.818;8.976;2022-10-16T03:55:42;1.60;;;1.10;;
15936;SDS011;9163;48.818;8.976;2022-10-16T03:58:09;2.40;;;1.60;;
15936;SDS011;9163;48.818;8.976;2022-10-16T04:00:39;3.60;;;1.53;;
15936;SDS011;9163;48.818;8.976;2022-10-16T04:03:07;4.10;;;1.50;;
15936;SDS011;9163;48.818;8.976;2022-10-16T04:05:34;2.53;;;1.40;;
15936;SDS011;9163;48.818;8.976;2022-10-16T04:08:01;3.23;;;1.53;;
15936;SDS011;9163;48.818;8.976;2022-10-16T04:10:29;3.57;;;1.53;;
15936;SDS011;9163;48.818;8.976;2022-10-16T04:12:57;2.70;;;1.50;;
15936;SDS011;9163;48.818;8.976;2022-10-16T04:15:25;4.20;;;1.50;;
15936;SDS011;9163;48.818;8.976;2022-10-16T04:17:52;4.47;;;1.50;;
15936;SDS011;9163;48.818;8.976;2022-10-16T04:20:19;3.07;;;1.50;;
15936;SDS011;9163;48.818;8.976;2022-10-16T04:22:47;2.70;;;1.60;;
15936;SDS011;9163;48.818;8.976;2022-10-16T04:25:14;4.60;;;1.67;;
15936;SDS011;9163;48.818;8.976;2022-10-16T04:27:41;3.37;;;1.63;;
15936;SDS011;9163;48.818;8.976;2022-10-16T04:30:10;2.20;;;1.57;;
15936;SDS011;9163;48.818;8.976;2022-10-16T04:32:37;5.20;;;1.57;;
15936;SDS011;9163;48.818;8.976;2022-10-16T04:35:05;3.93;;;1.80;;
15936;SDS011;9163;48.818;8.976;2022-10-16T04:37:33;2.40;;;1.50;;
15936;SDS011;9163;48.818;8.976;2022-10-16T04:40:00;2.80;;;1.47;;
15936;SDS011;9163;48.818;8.976;2022-10-16T04:42:27;4.03;;;1.70;;
15936;SDS011;9163;48.818;8.976;2022-10-16T04:44:54;2.43;;;1.40;;
15936;SDS011;9163;48.818;8.976;2022-10-16T04:47:23;3.03;;;1.40;;
15936;SDS011;9163;48.818;8.976;2022-10-16T04:49:50;1.73;;;1.63;;
15936;SDS011;9163;48.818;8.976;2022-10-16T04:52:17;3.10;;;2.43;;
15936;SDS011;9163;48.818;8.976;2022-10-16T04:54:44;3.00;;;1.53;;
15936;SDS011;9163;48.818;8.976;2022-10-16T04:57:11;2.37;;;1.50;;
15936;SDS011;9163;48.818;8.976;2022-10-16T04:59:39;3.07;;;1.70;;
15936;SDS011;9163;48.818;8.976;2022-10-16T05:02:06;1.83;;;1.30;;
15936;SDS011;9163;48.818;8.976;2022-10-16T05:04:34;3.20;;;1.73;;
15936;SDS011;9163;48.818;8.976;2022-10-16T05:07:01;4.27;;;1.90;;
15936;SDS011;9163;48.818;8.976;2022-10-16T05:09:29;4.87;;;1.70;;
15936;SDS011;9163;48.818;8.976;2022-10-16T05:11:56;2.77;;;1.77;;
15936;SDS011;9163;48.818;8.976;2022-10-16T05:14:23;2.90;;;1.87;;
15936;SDS011;9163;48.818;8.976;2022-10-16T05:16:50;3.53;;;2.23;;
15936;SDS011;9163;48.818;8.976;2022-10-16T05:19:17;3.33;;;1.70;;
15936;SDS011;9163;48.818;8.976;2022-10-16T05:21:46;4.00;;;2.57;;
15936;SDS011;9163;48.818;8.976;2022-10-16T05:24:13;4.43;;;2.00;;
15936;SDS011;9163;48.818;8.976;2022-10-16T05:26:40;3.70;;;1.70;;
15936;SDS011;9163;48.818;8.976;2022-10-16T05:29:08;5.53;;;1.87;;
15936;SDS011;9163;48.818;8.976;2022-10-16T05:31:36;4.13;;;1.90;;
15936;SDS011;9163;48.818;8.976;2022-10-16T05:34:03;2.73;;;1.90;;
15936;SDS011;9163;48.818;8.976;2022-10-16T05:36:30;3.03;;;2.37;;
15936;SDS011;9163;48.818;8.976;2022-10-16T05:38:58;5.03;;;2.10;;
15936;SDS011;9163;48.818;8.976;2022-10-16T05:41:25;4.07;;;1.80;;
15936;SDS011;9163;48.818;8.976;2022-10-16T05:43:53;3.03;;;2.10;;
15936;SDS011;9163;48.818;8.976;2022-10-16T05:46:20;2.73;;;2.10;;
15936;SDS011;9163;48.818;8.976;2022-10-16T05:48:47;2.27;;;1.60;;
15936;SDS011;9163;48.818;8.976;2022-10-16T05:51:14;4.73;;;2.00;;
15936;SDS011;9163;48.818;8.976;2022-10-16T05:53:41;3.60;;;2.83;;
15936;SDS011;9163;48.818;8.976;2022-10-16T05:56:10;2.20;;;2.00;;
15936;SDS011;9163;48.818;8.976;2022-10-16T05:58:38;3.30;;;1.83;;
15936;SDS011;9163;48.818;8.976;2022-10-16T06:01:08;3.93;;;1.97;;
15936;SDS011;9163;48.818;8.976;2022-10-16T06:03:37;2.53;;;1.70;;
15936;SDS011;9163;48.818;8.976;2022-10-16T06:06:07;2.47;;;1.60;;
15936;SDS011;9163;48.818;8.976;2022-10-16T06:08:35;3.20;;;1.53;;
15936;SDS011;9163;48.818;8.976;2022-10-16T06:11:03;5.27;;;1.80;;
15936;SDS011;9163;48.818;8.976;2022-10-16T06:13:33;6.07;;;1.83;;
15936;SDS011;9163;48.818;8.976;2022-10-16T06:16:00;3.13;;;1.70;;
15936;SDS011;9163;48.818;8.976;2022-10-16T06:18:29;4.67;;;1.80;;
15936;SDS011;9163;48.818;8.976;2022-10-16T06:20:56;2.97;;;1.60;;
15936;SDS011;9163;48.818;8.976;2022-10-16T06:23:24;2.13;;;1.70;;
15936;SDS011;9163;48.818;8.976;2022-10-16T06:25:52;4.00;;;1.80;;
15936;SDS011;9163;48.818;8.976;2022-10-16T06:28:19;5.63;;;1.90;;
15936;SDS011;9163;48.818;8.976;2022-10-16T06:30:47;3.23;;;1.70;;
15936;SDS011;9163;48.818;8.976;2022-10-16T06:33:14;2.00;;;1.70;;
15936;SDS011;9163;48.818;8.976;2022-10-16T06:35:42;2.60;;;1.60;;
15936;SDS011;9163;48.818;8.976;2022-10-16T06:38:09;3.37;;;1.70;;
15936;SDS011;9163;48.818;8.976;2022-10-16T06:40:36;6.70;;;2.00;;
15936;SDS011;9163;48.818;8.976;2022-10-16T06:43:03;3.27;;;1.70;;
15936;SDS011;9163;48.818;8.976;2022-10-16T06:45:30;2.77;;;1.50;;
15936;SDS011;9163;48.818;8.976;2022-10-16T06:47:59;2.17;;;1.70;;
15936;SDS011;9163;48.818;8.976;2022-10-16T06:50:26;8.93;;;1.90;;
15936;SDS011;9163;48.818;8.976;2022-10-16T06:52:53;3.70;;;1.60;;
15936;SDS011;9163;48.818;8.976;2022-10-16T06:55:20;3.40;;;1.80;;
15936;SDS011;9163;48.818;8.976;2022-10-16T06:57:47;2.33;;;1.50;;
15936;SDS011;9163;48.818;8.976;2022-10-16T07:00:15;2.97;;;1.60;;
15936;SDS011;9163;48.818;8.976;2022-10-16T07:02:42;2.83;;;1.47;;
15936;SDS011;9163;48.818;8.976;2022-10-16T07:05:10;1.83;;;1.57;;
15936;SDS011;9163;48.818;8.976;2022-10-16T07:07:37;3.30;;;1.60;;
15936;SDS011;9163;48.818;8.976;2022-10-16T07:10:05;5.00;;;1.63;;
15936;SDS011;9163;48.818;8.976;2022-10-16T07:12:32;2.13;;;1.70;;
15936;SDS011;9163;48.818;8.976;2022-10-16T07:14:59;2.67;;;1.63;;
15936;SDS011;9163;48.818;8.976;2022-10-16T07:17:27;3.20;;;1.60;;
15936;SDS011;9163;48.818;8.976;2022-10-16T07:19:54;2.73;;;1.63;;
15936;SDS011;9163;48.818;8.976;2022-10-16T07:22:22;3.10;;;1.60;;
15936;SDS011;9163;48.818;8.976;2022-10-16T07:24:49;2.37;;;1.50;;
15936;SDS011;9163;48.818;8.976;2022-10-16T07:27:18;2.83;;;1.70;;
15936;SDS011;9163;48.818;8.976;2022-10-16T07:29:47;3.83;;;1.70;;
15936;SDS011;9163;48.818;8.976;2022-10-16T07:32:14;2.20;;;1.60;;
15936;SDS011;9163;48.818;8.976;2022-10-16T07:34:42;1.77;;;1.50;;
15936;SDS011;9163;48.818;8.976;2022-10-16T07:37:09;3.40;;;1.83;;
15936;SDS011;9163;48.818;8.976;2022-10-16T07:39:37;3.77;;;1.63;;
15936;SDS011;9163;48.818;8.976;2022-10-16T07:42:04;2.93;;;1.40;;
15936;SDS011;9163;48.818;8.976;2022-10-16T07:44:33;2.83;;;1.73;;
15936;SDS011;9163;48.818;8.976;2022-10-16T07:47:00;2.20;;;1.50;;
15936;SDS011;9163;48.818;8.976;2022-10-16T07:49:27;2.53;;;1.53;;
15936;SDS011;9163;48.818;8.976;2022-10-16T07:51:54;3.90;;;1.70;;
15936;SDS011;9163;48.818;8.976;2022-10-16T07:54:21;3.20;;;1.60;;
15936;SDS011;9163;48.818;8.976;2022-10-16T07:56:50;4.53;;;1.90;;
15936;SDS011;9163;48.818;8.976;2022-10-16T07:59:17;1.77;;;1.30;;
15936;SDS011;9163;48.818;8.976;2022-10-16T08:01:44;2.40;;;1.33;;
15936;SDS011;9163;48.818;8.976;2022-10-16T08:04:11;3.50;;;1.40;;
15936;SDS011;9163;48.818;8.976;2022-10-16T08:06:39;3.67;;;1.30;;
15936;SDS011;9163;48.818;8.976;2022-10-16T08:09:07;3.27;;;1.60;;
15936;SDS011;9163;48.818;8.976;2022-10-16T08:11:35;3.63;;;1.47;;
15936;SDS011;9163;48.818;8.976;2022-10-16T08:14:03;2.37;;;1.60;;
15936;SDS011;9163;48.818;8.976;2022-10-16T08:16:30;5.60;;;1.30;;
15936;SDS011;9163;48.818;8.976;2022-10-16T08:18:58;2.30;;;1.40;;
15936;SDS011;9163;48.818;8.976;2022-10-16T08:21:25;3.90;;;1.50;;
15936;SDS011;9163;48.818;8.976;2022-10-16T08:23:52;3.10;;;1.23;;
15936;SDS011;9163;48.818;8.976;2022-10-16T08:26:21;3.87;;;1.67;;
15936;SDS011;9163;48.818;8.976;2022-10-16T08:28:49;3.30;;;1.50;;
15936;SDS011;9163;48.818;8.976;2022-10-16T08:31:17;2.60;;;1.57;;
15936;SDS011;9163;48.818;8.976;2022-10-16T08:33:45;3.63;;;1.37;;
15936;SDS011;9163;48.818;8.976;2022-10-16T08:36:13;3.23;;;1.40;;
15936;SDS011;9163;48.818;8.976;2022-10-16T08:38:41;4.33;;;1.70;;
15936;SDS011;9163;48.818;8.976;2022-10-16T08:41:20;3.03;;;1.50;;
15936;SDS011;9163;48.818;8.976;2022-10-16T08:44:03;1.43;;;1.33;;
15936;SDS011;9163;48.818;8.976;2022-10-16T08:46:50;1.80;;;1.30;;
15936;SDS011;9163;48.818;8.976;2022-10-16T08:49:23;1.80;;;1.43;;
15936;SDS011;9163;48.818;8.976;2022-10-16T08:51:50;3.33;;;1.40;;
15936;SDS011;9163;48.818;8.976;2022-10-16T08:54:22;3.70;;;1.40;;
15936;SDS011;9163;48.818;8.976;2022-10-16T08:56:55;5.10;;;1.60;;
15936;SDS011;9163;48.818;8.976;2022-10-16T08:59:23;3.50;;;1.50;;
15936;SDS011;9163;48.818;8.976;2022-10-16T09:01:51;5.13;;;1.73;;
15936;SDS011;9163;48.818;8.976;2022-10-16T09:04:29;3.93;;;1.53;;
15936;SDS011;9163;48.818;8.976;2022-10-16T09:07:12;1.80;;;1.10;;
15936;SDS011;9163;48.818;8.976;2022-10-16T09:09:53;1.80;;;1.20;;
15936;SDS011;9163;48.818;8.976;2022-10-16T09:12:32;3.10;;;1.40;;
15936;SDS011;9163;48.818;8.976;2022-10-16T09:15:10;3.33;;;1.50;;
15936;SDS011;9163;48.818;8.976;2022-10-16T09:17:48;2.30;;;1.50;;
15936;SDS011;9163;48.818;8.976;2022-10-16T09:20:25;1.70;;;1.30;;
15936;SDS011;9163;48.818;8.976;2022-10-16T09:23:00;3.60;;;1.43;;
15936;SDS011;9163;48.818;8.976;2022-10-16T09:25:38;2.33;;;1.37;;
15936;SDS011;9163;48.818;8.976;2022-10-16T09:28:07;1.67;;;1.47;;
15936;SDS011;9163;48.818;8.976;2022-10-16T09:30:35;2.57;;;1.33;;
15936;SDS011;9163;48.818;8.976;2022-10-16T09:33:06;1.83;;;1.30;;
15936;SDS011;9163;48.818;8.976;2022-10-16T09:35:35;2.07;;;1.10;;
15936;SDS011;9163;48.818;8.976;2022-10-16T09:38:05;5.07;;;1.30;;
15936;SDS011;9163;48.818;8.976;2022-10-16T09:40:33;2.17;;;1.50;;
15936;SDS011;9163;48.818;8.976;2022-10-16T09:43:03;4.03;;;1.50;;
15936;SDS011;9163;48.818;8.976;2022-10-16T09:45:42;4.80;;;1.37;;
15936;SDS011;9163;48.818;8.976;2022-10-16T09:48:20;1.90;;;1.30;;
15936;SDS011;9163;48.818;8.976;2022-10-16T09:50:55;2.97;;;1.30;;
15936;SDS011;9163;48.818;8.976;2022-10-16T09:53:23;2.43;;;1.30;;
15936;SDS011;9163;48.818;8.976;2022-10-16T09:55:50;3.73;;;1.27;;
15936;SDS011;9163;48.818;8.976;2022-10-16T09:58:21;4.83;;;1.10;;
15936;SDS011;9163;48.818;8.976;2022-10-16T10:00:49;2.50;;;1.27;;
15936;SDS011;9163;48.818;8.976;2022-10-16T10:03:35;3.43;;;1.10;;
15936;SDS011;9163;48.818;8.976;2022-10-16T10:06:06;2.17;;;1.40;;
15936;SDS011;9163;48.818;8.976;2022-10-16T10:08:52;2.43;;;1.40;;
15936;SDS011;9163;48.818;8.976;2022-10-16T10:14:04;2.90;;;1.40;;
15936;SDS011;9163;48.818;8.976;2022-10-16T10:16:32;3.80;;;1.40;;
15936;SDS011;9163;48.818;8.976;2022-10-16T10:19:00;2.53;;;1.40;;
15936;SDS011;9163;48.818;8.976;2022-10-16T10:21:27;4.43;;;1.67;;
15936;SDS011;9163;48.818;8.976;2022-10-16T10:23:55;5.80;;;1.53;;
15936;SDS011;9163;48.818;8.976;2022-10-16T10:26:23;2.10;;;1.50;;
15936;SDS011;9163;48.818;8.976;2022-10-16T10:28:55;1.73;;;1.30;;
15936;SDS011;9163;48.818;8.976;2022-10-16T10:31:29;2.47;;;1.40;;
15936;SDS011;9163;48.818;8.976;2022-10-16T10:34:04;2.73;;;1.03;;
15936;SDS011;9163;48.818;8.976;2022-10-16T10:36:44;2.70;;;1.30;;
15936;SDS011;9163;48.818;8.976;2022-10-16T10:39:18;2.80;;;1.40;;
15936;SDS011;9163;48.818;8.976;2022-10-16T10:41:57;2.57;;;1.10;;
15936;SDS011;9163;48.818;8.976;2022-10-16T10:44:51;1.67;;;1.20;;
15936;SDS011;9163;48.818;8.976;2022-10-16T10:47:31;1.47;;;1.00;;
15936;SDS011;9163;48.818;8.976;2022-10-16T10:50:10;2.13;;;1.17;;
15936;SDS011;9163;48.818;8.976;2022-10-16T10:52:48;2.47;;;1.20;;
15936;SDS011;9163;48.818;8.976;2022-10-16T10:55:28;2.00;;;1.17;;
15936;SDS011;9163;48.818;8.976;2022-10-16T11:00:57;1.63;;;1.00;;
15936;SDS011;9163;48.818;8.976;2022-10-16T11:03:46;2.35;;;1.20;;
15936;SDS011;9163;48.818;8.976;2022-10-16T11:06:28;4.03;;;1.20;;
15936;SDS011;9163;48.818;8.976;2022-10-16T11:09:00;1.83;;;1.00;;
15936;SDS011;9163;48.818;8.976;2022-10-16T11:11:31;2.70;;;1.20;;
15936;SDS011;9163;48.818;8.976;2022-10-16T11:14:03;3.25;;;1.50;;
15936;SDS011;9163;48.818;8.976;2022-10-16T11:16:38;2.72;;;1.40;;
15936;SDS011;9163;48.818;8.976;2022-10-16T11:19:11;3.60;;;1.70;;
15936;SDS011;9163;48.818;8.976;2022-10-16T11:21:44;3.63;;;1.05;;
15936;SDS011;9163;48.818;8.976;2022-10-16T11:24:16;1.25;;;1.10;;
15936;SDS011;9163;48.818;8.976;2022-10-16T11:26:48;2.70;;;1.30;;
15936;SDS011;9163;48.818;8.976;2022-10-16T11:29:20;1.23;;;1.13;;
15936;SDS011;9163;48.818;8.976;2022-10-16T11:31:52;3.63;;;1.00;;
15936;SDS011;9163;48.818;8.976;2022-10-16T11:34:24;4.78;;;1.10;;
15936;SDS011;9163;48.818;8.976;2022-10-16T11:36:58;1.40;;;1.00;;
15936;SDS011;9163;48.818;8.976;2022-10-16T11:39:32;1.80;;;1.23;;
15936;SDS011;9163;48.818;8.976;2022-10-16T11:42:01;2.53;;;1.00;;
15936;SDS011;9163;48.818;8.976;2022-10-16T11:44:38;1.38;;;1.17;;
15936;SDS011;9163;48.818;8.976;2022-10-16T11:47:16;2.30;;;1.15;;
15936;SDS011;9163;48.818;8.976;2022-10-16T11:49:51;2.70;;;1.13;;
15936;SDS011;9163;48.818;8.976;2022-10-16T11:52:28;3.67;;;1.02;;
15936;SDS011;9163;48.818;8.976;2022-10-16T11:55:01;1.83;;;1.10;;
15936;SDS011;9163;48.818;8.976;2022-10-16T11:57:38;2.28;;;1.02;;
15936;SDS011;9163;48.818;8.976;2022-10-16T12:00:08;1.92;;;1.20;;
15936;SDS011;9163;48.818;8.976;2022-10-16T12:02:49;1.65;;;1.20;;
15936;SDS011;9163;48.818;8.976;2022-10-16T12:05:24;2.85;;;1.33;;
15936;SDS011;9163;48.818;8.976;2022-10-16T12:08:04;4.32;;;1.23;;
15936;SDS011;9163;48.818;8.976;2022-10-16T12:10:35;2.17;;;1.30;;
15936;SDS011;9163;48.818;8.976;2022-10-16T12:13:03;2.40;;;1.13;;
15936;SDS011;9163;48.818;8.976;2022-10-16T12:15:31;2.35;;;1.00;;
15936;SDS011;9163;48.818;8.976;2022-10-16T12:18:00;1.20;;;1.10;;
15936;SDS011;9163;48.818;8.976;2022-10-16T12:20:28;2.78;;;1.20;;
15936;SDS011;9163;48.818;8.976;2022-10-16T12:22:58;3.05;;;1.10;;
15936;SDS011;9163;48.818;8.976;2022-10-16T12:25:30;2.95;;;1.15;;
15936;SDS011;9163;48.818;8.976;2022-10-16T12:28:02;1.20;;;1.10;;
15936;SDS011;9163;48.818;8.976;2022-10-16T12:30:32;1.27;;;1.05;;
15936;SDS011;9163;48.818;8.976;2022-10-16T12:33:02;3.72;;;1.50;;
15936;SDS011;9163;48.818;8.976;2022-10-16T12:35:32;3.08;;;1.30;;
15936;SDS011;9163;48.818;8.976;2022-10-16T12:38:04;3.97;;;1.15;;
15936;SDS011;9163;48.818;8.976;2022-10-16T12:40:42;1.85;;;1.10;;
15936;SDS011;9163;48.818;8.976;2022-10-16T12:43:12;2.95;;;1.48;;
15936;SDS011;9163;48.818;8.976;2022-10-16T12:45:58;2.88;;;1.25;;
15936;SDS011;9163;48.818;8.976;2022-10-16T12:48:27;2.60;;;1.10;;
15936;SDS011;9163;48.818;8.976;2022-10-16T12:50:54;2.13;;;1.20;;
15936;SDS011;9163;48.818;8.976;2022-10-16T12:53:21;1.60;;;1.13;;
15936;SDS011;9163;48.818;8.976;2022-10-16T12:56:03;2.80;;;1.13;;
15936;SDS011;9163;48.818;8.976;2022-10-16T12:58:46;2.28;;;1.20;;
15936;SDS011;9163;48.818;8.976;2022-10-16T13:01:31;2.55;;;1.20;;
15936;SDS011;9163;48.818;8.976;2022-10-16T13:04:13;1.60;;;1.20;;
15936;SDS011;9163;48.818;8.976;2022-10-16T13:06:51;3.42;;;1.08;;
15936;SDS011;9163;48.818;8.976;2022-10-16T13:09:27;3.25;;;1.10;;
15936;SDS011;9163;48.818;8.976;2022-10-16T13:12:06;5.88;;;1.30;;
15936;SDS011;9163;48.818;8.976;2022-10-16T13:14:56;3.00;;;1.10;;
15936;SDS011;9163;48.818;8.976;2022-10-16T13:17:37;2.85;;;1.30;;
15936;SDS011;9163;48.818;8.976;2022-10-16T13:20:16;3.28;;;1.17;;
15936;SDS011;9163;48.818;8.976;2022-10-16T13:22:52;2.88;;;1.35;;
15936;SDS011;9163;48.818;8.976;2022-10-16T13:25:27;2.70;;;1.13;;
15936;SDS011;9163;48.818;8.976;2022-10-16T13:28:07;5.65;;;1.42;;
15936;SDS011;9163;48.818;8.976;2022-10-16T13:30:37;3.28;;;1.15;;
15936;SDS011;9163;48.818;8.976;2022-10-16T13:33:10;3.65;;;1.33;;
15936;SDS011;9163;48.818;8.976;2022-10-16T13:35:46;4.53;;;1.33;;
15936;SDS011;9163;48.818;8.976;2022-10-16T13:38:15;2.97;;;1.33;;
15936;SDS011;9163;48.818;8.976;2022-10-16T13:40:51;2.28;;;1.10;;
15936;SDS011;9163;48.818;8.976;2022-10-16T13:43:22;1.23;;;1.08;;
15936;SDS011;9163;48.818;8.976;2022-10-16T13:45:54;2.83;;;1.30;;
15936;SDS011;9163;48.818;8.976;2022-10-16T13:48:23;4.30;;;1.30;;
15936;SDS011;9163;48.818;8.976;2022-10-16T13:51:03;6.18;;;1.30;;
15936;SDS011;9163;48.818;8.976;2022-10-16T13:53:33;2.70;;;1.20;;
15936;SDS011;9163;48.818;8.976;2022-10-16T13:56:02;2.97;;;1.13;;
15936;SDS011;9163;48.818;8.976;2022-10-16T13:58:33;4.43;;;1.35;;
15936;SDS011;9163;48.818;8.976;2022-10-16T14:01:01;2.92;;;1.40;;
15936;SDS011;9163;48.818;8.976;2022-10-16T14:03:30;2.70;;;1.30;;
15936;SDS011;9163;48.818;8.976;2022-10-16T14:06:01;2.35;;;1.50;;
15936;SDS011;9163;48.818;8.976;2022-10-16T14:08:30;4.35;;;1.42;;
15936;SDS011;9163;48.818;8.976;2022-10-16T14:10:59;1.63;;;1.23;;
15936;SDS011;9163;48.818;8.976;2022-10-16T14:13:33;2.70;;;1.10;;
15936;SDS011;9163;48.818;8.976;2022-10-16T14:16:05;3.83;;;1.10;;
15936;SDS011;9163;48.818;8.976;2022-10-16T14:18:35;2.45;;;1.20;;
15936;SDS011;9163;48.818;8.976;2022-10-16T14:21:05;2.08;;;1.17;;
15936;SDS011;9163;48.818;8.976;2022-10-16T14:23:35;1.83;;;1.40;;
15936;SDS011;9163;48.818;8.976;2022-10-16T14:26:12;2.72;;;1.30;;
15936;SDS011;9163;48.818;8.976;2022-10-16T14:28:42;5.88;;;1.45;;
15936;SDS011;9163;48.818;8.976;2022-10-16T14:31:22;4.50;;;1.25;;
15936;SDS011;9163;48.818;8.976;2022-10-16T14:33:51;2.65;;;1.20;;
15936;SDS011;9163;48.818;8.976;2022-10-16T14:36:19;5.70;;;1.25;;
15936;SDS011;9163;48.818;8.976;2022-10-16T14:38:49;4.25;;;1.30;;
15936;SDS011;9163;48.818;8.976;2022-10-16T14:41:22;3.17;;;1.30;;
15936;SDS011;9163;48.818;8.976;2022-10-16T14:43:52;3.95;;;1.30;;
15936;SDS011;9163;48.818;8.976;2022-10-16T14:46:22;3.95;;;1.30;;
15936;SDS011;9163;48.818;8.976;2022-10-16T14:48:58;2.53;;;1.33;;
15936;SDS011;9163;48.818;8.976;2022-10-16T14:51:31;5.18;;;1.30;;
15936;SDS011;9163;48.818;8.976;2022-10-16T14:53:59;5.03;;;1.33;;
15936;SDS011;9163;48.818;8.976;2022-10-16T14:56:29;8.57;;;1.60;;
15936;SDS011;9163;48.818;8.976;2022-10-16T14:59:01;5.65;;;1.30;;
15936;SDS011;9163;48.818;8.976;2022-10-16T15:01:29;3.40;;;1.20;;
15936;SDS011;9163;48.818;8.976;2022-10-16T15:03:56;4.45;;;1.40;;
15936;SDS011;9163;48.818;8.976;2022-10-16T15:06:24;3.80;;;1.42;;
15936;SDS011;9163;48.818;8.976;2022-10-16T15:08:51;4.93;;;1.40;;
15936;SDS011;9163;48.818;8.976;2022-10-16T15:11:18;4.70;;;1.40;;
15936;SDS011;9163;48.818;8.976;2022-10-16T15:13:46;2.88;;;1.40;;
15936;SDS011;9163;48.818;8.976;2022-10-16T15:16:15;5.20;;;1.50;;
15936;SDS011;9163;48.818;8.976;2022-10-16T15:18:43;5.20;;;1.40;;
15936;SDS011;9163;48.818;8.976;2022-10-16T15:21:12;3.33;;;1.30;;
15936;SDS011;9163;48.818;8.976;2022-10-16T15:23:49;3.15;;;1.35;;
15936;SDS011;9163;48.818;8.976;2022-10-16T15:26:17;3.28;;;1.35;;
15936;SDS011;9163;48.818;8.976;2022-10-16T15:28:44;5.10;;;1.50;;